Time;durP1;ratioP1;P1;durP2;ratioP2;P2;SDS_P1;SDS_P2;PMS_P1;PMS_P2;Temp;Humidity;BMP_temperature;BMP_pressure;BME280_temperature;BME280_humidity;BME280_pressure;Samples;Min_cycle;Max_cycle;Signal;HPM_P1;HPM_P2
2020/12/24 00:02:14;;;;;;;20.90;12.27;;;;;;;;;;5072011;28;20413;-68
2020/12/24 00:04:39;;;;;;;22.20;12.02;;;;;;;;;;5072421;28;20052;-68
2020/12/24 00:07:05;;;;;;;19.85;12.15;;;;;;;;;;5054280;28;20443;-67
2020/12/24 00:09:40;;;;;;;21.38;11.90;;;;;;;;;;5072131;28;20087;-67
2020/12/24 00:12:06;;;;;;;20.27;11.52;;;;;;;;;;5071976;28;20036;-68
2020/12/24 00:14:31;;;;;;;21.77;11.88;;;;;;;;;;5071916;28;20090;-68
2020/12/24 00:16:58;;;;;;;22.35;11.38;;;;;;;;;;5071311;28;20100;-68
2020/12/24 00:19:23;;;;;;;19.45;11.23;;;;;;;;;;5072040;28;20052;-67
2020/12/24 00:21:48;;;;;;;20.98;12.30;;;;;;;;;;5054497;28;20023;-68
2020/12/24 00:24:15;;;;;;;21.92;11.57;;;;;;;;;;5037308;28;20020;-67
2020/12/24 00:26:41;;;;;;;17.90;11.02;;;;;;;;;;5071880;28;20404;-68
2020/12/24 00:29:07;;;;;;;20.08;10.85;;;;;;;;;;5072029;28;20020;-67
2020/12/24 00:31:33;;;;;;;17.23;11.02;;;;;;;;;;5053799;28;20048;-67
2020/12/24 00:33:58;;;;;;;16.48;10.35;;;;;;;;;;5071719;28;20048;-67
2020/12/24 00:36:24;;;;;;;18.77;11.02;;;;;;;;;;5053963;28;20044;-67
2020/12/24 00:38:49;;;;;;;20.23;10.68;;;;;;;;;;5071810;28;20480;-68
2020/12/24 00:41:15;;;;;;;15.75;9.45;;;;;;;;;;5054071;28;20044;-67
2020/12/24 00:43:40;;;;;;;19.17;10.45;;;;;;;;;;5071742;28;20020;-68
2020/12/24 00:46:05;;;;;;;18.27;10.23;;;;;;;;;;5054694;28;20082;-68
2020/12/24 00:48:31;;;;;;;19.88;10.18;;;;;;;;;;5075619;28;20032;-68
2020/12/24 00:50:56;;;;;;;18.20;10.40;;;;;;;;;;5075421;28;20070;-67
2020/12/24 00:53:22;;;;;;;18.33;10.20;;;;;;;;;;5075272;28;20033;-67
2020/12/24 00:55:47;;;;;;;18.50;10.45;;;;;;;;;;5075341;28;20145;-68
2020/12/24 00:58:13;;;;;;;17.65;10.23;;;;;;;;;;5075202;28;20067;-68
2020/12/24 01:00:38;;;;;;;18.35;10.00;;;;;;;;;;5074965;28;20024;-67
2020/12/24 01:03:04;;;;;;;20.48;10.68;;;;;;;;;;5075234;28;20036;-67
2020/12/24 01:05:31;;;;;;;18.30;10.13;;;;;;;;;;5057341;28;20020;-68
2020/12/24 01:07:56;;;;;;;16.75;9.40;;;;;;;;;;5075257;28;20036;-68
2020/12/24 01:10:21;;;;;;;19.33;10.38;;;;;;;;;;5075145;28;20109;-68
2020/12/24 01:12:47;;;;;;;17.77;10.60;;;;;;;;;;5057138;28;20094;-67
2020/12/24 01:15:13;;;;;;;17.55;10.32;;;;;;;;;;5075277;28;20469;-67
2020/12/24 01:17:39;;;;;;;18.40;10.60;;;;;;;;;;5074408;28;20039;-67
2020/12/24 01:20:05;;;;;;;17.77;10.45;;;;;;;;;;5074863;28;20024;-67
2020/12/24 01:22:32;;;;;;;16.85;10.25;;;;;;;;;;5057132;28;20021;-67
2020/12/24 01:24:57;;;;;;;17.48;10.85;;;;;;;;;;5074756;28;20017;-67
2020/12/24 01:27:22;;;;;;;22.17;12.05;;;;;;;;;;5040391;28;20031;-67
2020/12/24 01:29:48;;;;;;;18.65;10.60;;;;;;;;;;5074733;28;20012;-68
2020/12/24 01:32:13;;;;;;;15.20;10.02;;;;;;;;;;5074210;28;20485;-67
2020/12/24 01:34:39;;;;;;;16.80;9.45;;;;;;;;;;5074817;28;20469;-67
2020/12/24 01:37:04;;;;;;;19.13;10.25;;;;;;;;;;5074741;28;20033;-67
2020/12/24 01:39:30;;;;;;;17.33;9.88;;;;;;;;;;5074590;28;20040;-67
2020/12/24 01:41:55;;;;;;;20.05;10.30;;;;;;;;;;5056563;28;20016;-68
2020/12/24 01:44:21;;;;;;;16.98;9.63;;;;;;;;;;5074374;28;20028;-67
2020/12/24 01:46:47;;;;;;;17.67;10.02;;;;;;;;;;5073712;28;20017;-67
2020/12/24 01:49:12;;;;;;;16.65;9.85;;;;;;;;;;5074477;28;20017;-68
2020/12/24 01:51:39;;;;;;;15.80;9.45;;;;;;;;;;5074358;28;20116;-68
2020/12/24 01:54:04;;;;;;;16.50;10.07;;;;;;;;;;5074127;28;20020;-68
2020/12/24 01:56:30;;;;;;;17.30;9.45;;;;;;;;;;5074239;28;20009;-67
2020/12/24 01:58:55;;;;;;;17.25;10.30;;;;;;;;;;5055622;28;20035;-67
2020/12/24 02:01:21;;;;;;;18.58;9.85;;;;;;;;;;5074152;28;20025;-68
2020/12/24 02:03:47;;;;;;;16.60;10.13;;;;;;;;;;5056345;28;20021;-68
2020/12/24 02:06:12;;;;;;;19.30;9.73;;;;;;;;;;5056102;28;20095;-67
2020/12/24 02:08:39;;;;;;;14.50;9.43;;;;;;;;;;5073922;28;20013;-67
2020/12/24 02:11:04;;;;;;;16.20;9.38;;;;;;;;;;5055916;28;20028;-67
2020/12/24 02:13:30;;;;;;;15.90;9.23;;;;;;;;;;5056545;28;20040;-67
2020/12/24 02:15:56;;;;;;;19.17;10.65;;;;;;;;;;5072998;28;20021;-67
2020/12/24 02:18:21;;;;;;;16.42;9.82;;;;;;;;;;5073794;28;20077;-67
2020/12/24 02:20:47;;;;;;;16.15;9.73;;;;;;;;;;5074453;28;20017;-67
2020/12/24 02:23:13;;;;;;;15.57;9.70;;;;;;;;;;5055905;28;20025;-67
2020/12/24 02:25:40;;;;;;;17.38;9.25;;;;;;;;;;5055780;28;20028;-67
2020/12/24 02:28:06;;;;;;;16.33;8.50;;;;;;;;;;5073682;28;20381;-67
2020/12/24 02:30:31;;;;;;;16.20;8.85;;;;;;;;;;5073779;28;20119;-68
2020/12/24 02:32:57;;;;;;;12.70;8.18;;;;;;;;;;5073202;28;20052;-67
2020/12/24 02:35:22;;;;;;;18.15;9.38;;;;;;;;;;5039017;28;20023;-67
2020/12/24 02:37:48;;;;;;;16.65;9.23;;;;;;;;;;5073558;28;20087;-67
2020/12/24 02:40:14;;;;;;;12.65;8.88;;;;;;;;;;5073185;28;20024;-67
2020/12/24 02:42:39;;;;;;;13.32;7.78;;;;;;;;;;5073253;28;20039;-67
2020/12/24 02:45:05;;;;;;;14.27;8.40;;;;;;;;;;5073473;28;20441;-68
2020/12/24 02:47:31;;;;;;;16.70;8.20;;;;;;;;;;5072738;28;20095;-67
2020/12/24 02:49:57;;;;;;;12.40;8.00;;;;;;;;;;5055153;28;20028;-67
2020/12/24 02:52:22;;;;;;;16.15;8.32;;;;;;;;;;5055311;28;20024;-67
2020/12/24 02:54:48;;;;;;;13.93;8.13;;;;;;;;;;5073277;28;20373;-67
2020/12/24 02:57:13;;;;;;;20.58;8.38;;;;;;;;;;5073119;28;20017;-67
2020/12/24 02:59:39;;;;;;;13.20;9.00;;;;;;;;;;5073060;28;20108;-68
2020/12/24 03:02:05;;;;;;;14.38;8.40;;;;;;;;;;5072647;28;20028;-67
2020/12/24 03:04:33;;;;;;;14.90;8.32;;;;;;;;;;5073007;28;20016;-67
2020/12/24 03:06:59;;;;;;;14.07;8.80;;;;;;;;;;5055307;28;20017;-67
2020/12/24 03:09:24;;;;;;;13.18;7.88;;;;;;;;;;5037565;28;20073;-68
2020/12/24 03:11:50;;;;;;;13.90;8.40;;;;;;;;;;5072692;28;20017;-67
2020/12/24 03:14:16;;;;;;;14.27;8.98;;;;;;;;;;5054753;28;20027;-67
2020/12/24 03:16:42;;;;;;;14.65;8.13;;;;;;;;;;5054109;28;20025;-68
2020/12/24 03:19:07;;;;;;;14.60;9.25;;;;;;;;;;5054860;28;20020;-67
2020/12/24 03:21:34;;;;;;;11.75;8.18;;;;;;;;;;5072798;28;20024;-67
2020/12/24 03:23:59;;;;;;;13.80;8.18;;;;;;;;;;5072450;28;20020;-68
2020/12/24 03:26:24;;;;;;;14.35;9.10;;;;;;;;;;5072753;28;20020;-67
2020/12/24 03:28:50;;;;;;;13.20;8.45;;;;;;;;;;5054771;28;20023;-68
2020/12/24 03:31:21;;;;;;;13.45;8.30;;;;;;;;;;5054402;28;20040;-68
2020/12/24 03:33:46;;;;;;;16.13;9.48;;;;;;;;;;5072371;28;20434;-68
2020/12/24 03:36:12;;;;;;;13.55;8.15;;;;;;;;;;5054369;28;20099;-67
2020/12/24 03:38:37;;;;;;;15.75;8.23;;;;;;;;;;5054481;28;20059;-67
2020/12/24 03:41:02;;;;;;;13.88;7.70;;;;;;;;;;5054527;28;20013;-67
2020/12/24 03:43:28;;;;;;;13.88;8.18;;;;;;;;;;5072316;28;20097;-67
2020/12/24 03:45:54;;;;;;;14.73;8.73;;;;;;;;;;5071811;28;20017;-67
2020/12/24 03:48:20;;;;;;;13.52;8.23;;;;;;;;;;5072263;28;20437;-67
2020/12/24 03:50:45;;;;;;;16.67;8.73;;;;;;;;;;5072284;28;20052;-67
2020/12/24 03:53:11;;;;;;;15.40;9.02;;;;;;;;;;5072283;28;20028;-67
2020/12/24 03:55:36;;;;;;;15.13;8.63;;;;;;;;;;5054124;28;20012;-68
2020/12/24 03:58:01;;;;;;;13.85;8.38;;;;;;;;;;5054122;28;20469;-67
2020/12/24 04:00:28;;;;;;;16.35;9.27;;;;;;;;;;5072188;28;20027;-67
2020/12/24 04:02:53;;;;;;;17.75;10.10;;;;;;;;;;5072069;28;20012;-68
2020/12/24 04:05:19;;;;;;;13.55;8.80;;;;;;;;;;5072346;28;20031;-68
2020/12/24 04:07:47;;;;;;;19.52;11.15;;;;;;;;;;5054020;28;20021;-68
2020/12/24 04:10:13;;;;;;;22.65;11.68;;;;;;;;;;5072050;28;20396;-67
2020/12/24 04:12:38;;;;;;;18.13;11.48;;;;;;;;;;5072045;28;20077;-67
2020/12/24 04:15:04;;;;;;;18.58;11.18;;;;;;;;;;5071911;28;20020;-67
2020/12/24 04:17:29;;;;;;;22.02;9.75;;;;;;;;;;5071459;28;20091;-67
2020/12/24 04:19:54;;;;;;;24.85;12.27;;;;;;;;;;5054014;28;20155;-67
2020/12/24 04:22:20;;;;;;;17.95;10.90;;;;;;;;;;5075892;28;20023;-67
2020/12/24 04:24:46;;;;;;;20.73;10.45;;;;;;;;;;5076030;28;20021;-68
2020/12/24 04:27:12;;;;;;;19.75;11.02;;;;;;;;;;5058013;28;20554;-67
2020/12/24 04:29:37;;;;;;;19.15;10.73;;;;;;;;;;5075754;28;20055;-67
2020/12/24 04:32:02;;;;;;;17.70;10.95;;;;;;;;;;5075230;28;20048;-68
2020/12/24 04:34:28;;;;;;;22.20;10.93;;;;;;;;;;5041348;28;20466;-67
2020/12/24 04:36:53;;;;;;;17.08;10.75;;;;;;;;;;5075689;28;20031;-67
2020/12/24 04:39:20;;;;;;;20.48;11.57;;;;;;;;;;5075777;28;20016;-67
2020/12/24 04:41:46;;;;;;;22.05;10.95;;;;;;;;;;5057694;28;20099;-67
2020/12/24 04:44:11;;;;;;;22.08;11.55;;;;;;;;;;5057665;28;20021;-67
2020/12/24 04:46:37;;;;;;;23.02;12.07;;;;;;;;;;5074737;28;20071;-67
2020/12/24 04:49:02;;;;;;;23.52;12.02;;;;;;;;;;5075615;28;20079;-67
2020/12/24 04:51:28;;;;;;;19.27;11.45;;;;;;;;;;5057666;28;20154;-67
2020/12/24 04:53:54;;;;;;;19.58;12.05;;;;;;;;;;5040624;28;20110;-67
2020/12/24 04:56:19;;;;;;;20.48;12.07;;;;;;;;;;5057474;28;20477;-67
2020/12/24 04:58:45;;;;;;;19.77;11.60;;;;;;;;;;5075239;28;20016;-68
2020/12/24 05:01:14;;;;;;;20.20;12.10;;;;;;;;;;5075134;28;20024;-67
2020/12/24 05:03:40;;;;;;;23.95;13.13;;;;;;;;;;5057889;28;20469;-67
2020/12/24 05:06:05;;;;;;;22.23;13.43;;;;;;;;;;5040456;28;20036;-67
2020/12/24 05:08:31;;;;;;;22.17;12.65;;;;;;;;;;5057625;28;20107;-67
2020/12/24 05:11:02;;;;;;;22.90;12.77;;;;;;;;;;5075099;28;20013;-67
2020/12/24 05:13:28;;;;;;;20.30;12.38;;;;;;;;;;5075173;28;20381;-67
2020/12/24 05:15:53;;;;;;;21.70;13.30;;;;;;;;;;5074139;28;20025;-67
2020/12/24 05:18:22;;;;;;;22.42;12.80;;;;;;;;;;5075032;28;20425;-67
2020/12/24 05:20:48;;;;;;;27.30;13.63;;;;;;;;;;5074894;28;20361;-67
2020/12/24 05:23:14;;;;;;;19.95;12.13;;;;;;;;;;5040333;28;20099;-67
2020/12/24 05:25:40;;;;;;;25.05;14.63;;;;;;;;;;5056966;28;20021;-68
2020/12/24 05:28:06;;;;;;;25.50;13.77;;;;;;;;;;5056767;28;20028;-67
2020/12/24 05:30:32;;;;;;;25.55;14.30;;;;;;;;;;5074710;28;20017;-67
2020/12/24 05:32:58;;;;;;;24.25;13.40;;;;;;;;;;5052253;28;20409;-67
2020/12/24 05:35:24;;;;;;;21.38;13.48;;;;;;;;;;5054653;28;20017;-67
2020/12/24 05:37:50;;;;;;;20.40;12.63;;;;;;;;;;5053390;28;20558;-67
2020/12/24 05:40:25;;;;;;;24.73;13.95;;;;;;;;;;5054487;28;20056;-68
2020/12/24 05:42:53;;;;;;;23.48;13.25;;;;;;;;;;5054445;28;20023;-67
2020/12/24 05:45:19;;;;;;;25.15;13.32;;;;;;;;;;5053270;28;20052;-67
2020/12/24 05:47:44;;;;;;;24.73;13.65;;;;;;;;;;5052614;28;20488;-67
2020/12/24 05:50:26;;;;;;;22.80;13.70;;;;;;;;;;5053086;28;20029;-67
2020/12/24 05:53:01;;;;;;;23.05;12.57;;;;;;;;;;5054581;28;20036;-67
2020/12/24 05:55:26;;;;;;;22.95;13.98;;;;;;;;;;5054086;28;20033;-67
2020/12/24 05:57:53;;;;;;;21.33;13.23;;;;;;;;;;5054223;28;20023;-67
2020/12/24 06:00:19;;;;;;;23.23;13.18;;;;;;;;;;5054057;28;20489;-68
2020/12/24 06:02:53;;;;;;;24.13;13.93;;;;;;;;;;5054434;28;20025;-67
2020/12/24 06:05:23;;;;;;;29.00;15.95;;;;;;;;;;5054219;28;20021;-67
2020/12/24 06:08:01;;;;;;;27.52;14.80;;;;;;;;;;5053926;28;20078;-68
2020/12/24 06:10:34;;;;;;;24.98;13.98;;;;;;;;;;5053023;28;20021;-67
2020/12/24 06:12:59;;;;;;;25.95;14.48;;;;;;;;;;5054027;28;20028;-68
2020/12/24 06:15:27;;;;;;;25.33;13.90;;;;;;;;;;5052689;28;20009;-68
2020/12/24 06:17:54;;;;;;;25.67;14.05;;;;;;;;;;5053777;28;20023;-67
2020/12/24 06:20:20;;;;;;;26.23;14.23;;;;;;;;;;5052611;28;20017;-67
2020/12/24 06:22:46;;;;;;;26.02;14.48;;;;;;;;;;5036163;28;20029;-68
2020/12/24 06:25:11;;;;;;;25.17;14.52;;;;;;;;;;5054016;28;20020;-67
2020/12/24 06:27:38;;;;;;;24.80;14.73;;;;;;;;;;5053685;28;20017;-67
2020/12/24 06:30:03;;;;;;;38.92;18.67;;;;;;;;;;5052230;28;20017;-67
2020/12/24 06:32:31;;;;;;;26.40;13.88;;;;;;;;;;5067041;28;20051;-67
2020/12/24 06:34:57;;;;;;;24.20;13.95;;;;;;;;;;5073702;28;20041;-67
2020/12/24 06:37:22;;;;;;;25.90;14.02;;;;;;;;;;5073338;28;20027;-67
2020/12/24 06:39:49;;;;;;;24.85;13.80;;;;;;;;;;5038801;28;20488;-68
2020/12/24 06:42:24;;;;;;;28.27;14.23;;;;;;;;;;5055248;28;20070;-67
2020/12/24 06:44:49;;;;;;;22.25;13.25;;;;;;;;;;5055219;28;20016;-68
2020/12/24 06:47:16;;;;;;;22.95;13.43;;;;;;;;;;5072648;28;20020;-68
2020/12/24 06:49:41;;;;;;;22.30;12.50;;;;;;;;;;5055305;28;20082;-68
2020/12/24 06:52:07;;;;;;;25.63;13.98;;;;;;;;;;5055151;28;20493;-68
2020/12/24 06:54:32;;;;;;;26.02;13.82;;;;;;;;;;5055268;28;20040;-67
2020/12/24 06:57:07;;;;;;;27.25;14.85;;;;;;;;;;5055069;28;20111;-67
2020/12/24 06:59:32;;;;;;;29.58;15.27;;;;;;;;;;5073386;28;20099;-68
2020/12/24 07:02:00;;;;;;;25.58;13.65;;;;;;;;;;5072586;28;20048;-68
2020/12/24 07:04:35;;;;;;;29.85;13.73;;;;;;;;;;5053471;28;20048;-67
2020/12/24 07:07:00;;;;;;;27.02;15.55;;;;;;;;;;5072509;28;20012;-67
2020/12/24 07:09:26;;;;;;;28.83;15.05;;;;;;;;;;5038003;28;20040;-68
2020/12/24 07:11:52;;;;;;;26.63;13.90;;;;;;;;;;5054884;28;20020;-69
2020/12/24 07:14:27;;;;;;;26.63;14.45;;;;;;;;;;5041132;28;20020;-68
2020/12/24 07:16:52;;;;;;;25.45;13.52;;;;;;;;;;5064014;28;20015;-68
2020/12/24 07:19:19;;;;;;;24.85;13.05;;;;;;;;;;5074974;28;20016;-69
2020/12/24 07:21:46;;;;;;;21.33;12.75;;;;;;;;;;5092813;28;20055;-68
2020/12/24 07:24:13;;;;;;;24.20;12.70;;;;;;;;;;5092528;28;20065;-67
2020/12/24 07:26:38;;;;;;;25.60;14.02;;;;;;;;;;5074937;28;20380;-68
2020/12/24 07:29:04;;;;;;;20.83;11.57;;;;;;;;;;5092644;28;20012;-67
2020/12/24 07:31:30;;;;;;;18.42;11.23;;;;;;;;;;5074398;28;20496;-67
2020/12/24 07:33:55;;;;;;;20.88;11.75;;;;;;;;;;5074575;28;20034;-67
2020/12/24 07:36:24;;;;;;;24.38;12.93;;;;;;;;;;5092231;28;20047;-69
2020/12/24 07:38:50;;;;;;;23.50;11.80;;;;;;;;;;5074376;28;20366;-70
2020/12/24 07:41:16;;;;;;;20.20;12.05;;;;;;;;;;5057634;28;20031;-69
2020/12/24 07:43:41;;;;;;;24.65;12.27;;;;;;;;;;5074810;28;20034;-70
2020/12/24 07:46:07;;;;;;;22.08;11.63;;;;;;;;;;5091356;28;20095;-69
2020/12/24 07:48:32;;;;;;;19.83;11.57;;;;;;;;;;5092195;28;20016;-70
2020/12/24 07:51:06;;;;;;;24.48;12.40;;;;;;;;;;5074274;28;20074;-67
2020/12/24 07:53:31;;;;;;;20.55;11.82;;;;;;;;;;5074441;28;20404;-70
2020/12/24 07:56:05;;;;;;;22.27;12.45;;;;;;;;;;5073533;28;20028;-68
2020/12/24 07:58:30;;;;;;;20.58;11.63;;;;;;;;;;5058141;28;20032;-69
2020/12/24 08:00:56;;;;;;;23.40;11.93;;;;;;;;;;5073916;28;20020;-71
2020/12/24 08:03:21;;;;;;;23.75;11.55;;;;;;;;;;5074200;28;20063;-71
2020/12/24 08:05:47;;;;;;;22.65;11.93;;;;;;;;;;5074366;28;20028;-69
2020/12/24 08:08:20;;;;;;;21.15;10.98;;;;;;;;;;5073810;28;20443;-70
2020/12/24 08:10:45;;;;;;;20.98;11.15;;;;;;;;;;5073837;28;20150;-71
2020/12/24 08:13:11;;;;;;;20.33;11.48;;;;;;;;;;5073707;28;20485;-69
2020/12/24 08:15:39;;;;;;;22.38;11.80;;;;;;;;;;5091107;28;20028;-69
2020/12/24 08:18:05;;;;;;;19.60;11.25;;;;;;;;;;5092125;28;20150;-69
2020/12/24 08:20:38;;;;;;;19.05;11.90;;;;;;;;;;5058110;28;20046;-69
2020/12/24 08:23:12;;;;;;;20.10;11.25;;;;;;;;;;5074175;28;20027;-69
2020/12/24 08:25:37;;;;;;;17.77;11.13;;;;;;;;;;5092074;28;20015;-70
2020/12/24 08:28:03;;;;;;;27.13;13.20;;;;;;;;;;5091405;28;20016;-69
2020/12/24 08:30:29;;;;;;;22.52;11.77;;;;;;;;;;5092099;28;20042;-69
2020/12/24 08:32:54;;;;;;;21.00;11.55;;;;;;;;;;5091609;28;20487;-69
2020/12/24 08:35:19;;;;;;;19.08;11.27;;;;;;;;;;5091922;28;20016;-69
2020/12/24 08:37:45;;;;;;;24.25;11.65;;;;;;;;;;5073580;28;20024;-69
2020/12/24 08:40:20;;;;;;;22.48;11.45;;;;;;;;;;5073575;28;20012;-69
2020/12/24 08:42:46;;;;;;;25.30;11.65;;;;;;;;;;5091587;28;20028;-69
2020/12/24 08:45:12;;;;;;;22.58;11.30;;;;;;;;;;5092051;28;20028;-69
2020/12/24 08:47:38;;;;;;;22.65;11.98;;;;;;;;;;5091109;28;20457;-70
2020/12/24 08:50:04;;;;;;;21.45;11.07;;;;;;;;;;5073246;28;20487;-69
2020/12/24 08:52:34;;;;;;;22.17;11.32;;;;;;;;;;5073963;28;20046;-69
2020/12/24 08:55:01;;;;;;;20.67;11.07;;;;;;;;;;5073654;28;20035;-70
2020/12/24 08:57:26;;;;;;;19.00;11.15;;;;;;;;;;5091880;28;20032;-69
2020/12/24 08:59:53;;;;;;;22.80;12.13;;;;;;;;;;5073843;28;20111;-69
2020/12/24 09:02:23;;;;;;;29.42;15.02;;;;;;;;;;5073604;28;20020;-69
2020/12/24 09:04:52;;;;;;;21.58;10.70;;;;;;;;;;5091792;28;20119;-69
2020/12/24 09:07:27;;;;;;;16.50;10.57;;;;;;;;;;5057270;28;20468;-69
2020/12/24 09:10:02;;;;;;;17.20;10.10;;;;;;;;;;5076887;28;20028;-69
2020/12/24 09:12:27;;;;;;;19.70;11.18;;;;;;;;;;5095386;28;20051;-71
2020/12/24 09:15:02;;;;;;;16.63;10.23;;;;;;;;;;5077070;28;20025;-71
2020/12/24 09:17:27;;;;;;;20.00;10.52;;;;;;;;;;5094688;28;20024;-71
2020/12/24 09:20:02;;;;;;;20.98;10.40;;;;;;;;;;5076954;28;20073;-71
2020/12/24 09:22:27;;;;;;;21.55;10.45;;;;;;;;;;5095056;28;20039;-71
2020/12/24 09:24:53;;;;;;;18.23;9.02;;;;;;;;;;5077005;28;20026;-71
2020/12/24 09:27:18;;;;;;;18.80;10.50;;;;;;;;;;5094945;28;20433;-67
2020/12/24 09:29:44;;;;;;;16.42;9.88;;;;;;;;;;5094877;28;20020;-72
2020/12/24 09:32:11;;;;;;;41.40;11.70;;;;;;;;;;5094409;28;20040;-71
2020/12/24 09:34:37;;;;;;;20.05;10.07;;;;;;;;;;5076855;28;20069;-69
2020/12/24 09:37:02;;;;;;;18.42;11.27;;;;;;;;;;5094598;28;20488;-68
2020/12/24 09:39:28;;;;;;;22.17;11.10;;;;;;;;;;5094771;28;20035;-66
2020/12/24 09:41:53;;;;;;;22.73;10.20;;;;;;;;;;5076467;28;20165;-68
2020/12/24 09:44:19;;;;;;;17.30;9.82;;;;;;;;;;5094348;28;20066;-70
2020/12/24 09:46:46;;;;;;;18.77;9.88;;;;;;;;;;5094042;28;20027;-70
2020/12/24 09:49:11;;;;;;;18.25;10.15;;;;;;;;;;5076299;28;20012;-68
2020/12/24 09:51:37;;;;;;;22.08;11.43;;;;;;;;;;5094258;28;20481;-72
2020/12/24 09:54:03;;;;;;;33.38;12.63;;;;;;;;;;5093912;28;20043;-70
2020/12/24 09:56:28;;;;;;;22.20;10.27;;;;;;;;;;5076544;28;20027;-70
2020/12/24 09:58:54;;;;;;;23.33;10.75;;;;;;;;;;5094557;28;20024;-70
2020/12/24 10:01:19;;;;;;;14.55;8.70;;;;;;;;;;5076375;28;20008;-69
2020/12/24 10:03:45;;;;;;;18.08;9.32;;;;;;;;;;5063863;28;20028;-69
2020/12/24 10:06:11;;;;;;;15.48;8.18;;;;;;;;;;5093937;28;20020;-66
2020/12/24 10:08:37;;;;;;;14.73;7.30;;;;;;;;;;5076670;28;20066;-68
2020/12/24 10:11:02;;;;;;;16.05;7.30;;;;;;;;;;5076250;28;20077;-68
2020/12/24 10:13:27;;;;;;;13.70;7.93;;;;;;;;;;5076259;28;20104;-68
2020/12/24 10:15:53;;;;;;;14.40;7.03;;;;;;;;;;5075579;28;20016;-66
2020/12/24 10:18:18;;;;;;;14.48;6.50;;;;;;;;;;5093477;28;20024;-66
2020/12/24 10:20:44;;;;;;;11.82;6.80;;;;;;;;;;5076498;28;20047;-67
2020/12/24 10:23:10;;;;;;;15.45;7.18;;;;;;;;;;5075809;28;20027;-68
2020/12/24 10:25:37;;;;;;;15.05;8.13;;;;;;;;;;5093835;28;20031;-68
2020/12/24 10:28:03;;;;;;;11.93;6.88;;;;;;;;;;5093664;28;20032;-68
2020/12/24 10:30:28;;;;;;;12.60;6.45;;;;;;;;;;5093978;28;20020;-68
2020/12/24 10:32:54;;;;;;;11.20;6.40;;;;;;;;;;5058778;28;20098;-68
2020/12/24 10:35:20;;;;;;;11.95;7.05;;;;;;;;;;5093996;28;20023;-68
2020/12/24 10:37:46;;;;;;;11.77;6.35;;;;;;;;;;5094079;28;20032;-68
2020/12/24 10:40:12;;;;;;;13.32;6.47;;;;;;;;;;5058643;28;20028;-68
2020/12/24 10:42:40;;;;;;;11.57;6.57;;;;;;;;;;5075987;28;20456;-68
2020/12/24 10:45:05;;;;;;;12.35;6.40;;;;;;;;;;5094053;28;20054;-68
2020/12/24 10:47:32;;;;;;;13.00;6.47;;;;;;;;;;5058195;28;20052;-68
2020/12/24 10:49:58;;;;;;;10.88;5.53;;;;;;;;;;5093884;28;20057;-68
2020/12/24 10:52:23;;;;;;;10.68;6.15;;;;;;;;;;5075317;28;20361;-68
2020/12/24 10:54:49;;;;;;;11.73;5.97;;;;;;;;;;5075794;28;20016;-68
2020/12/24 10:57:15;;;;;;;9.52;5.47;;;;;;;;;;5093787;28;20426;-68
2020/12/24 10:59:42;;;;;;;10.32;5.72;;;;;;;;;;5093582;28;20024;-68
2020/12/24 11:02:07;;;;;;;12.00;6.35;;;;;;;;;;5075176;28;20103;-68
2020/12/24 11:04:33;;;;;;;14.25;6.78;;;;;;;;;;5075386;28;20103;-68
2020/12/24 11:06:58;;;;;;;12.38;6.50;;;;;;;;;;5093429;28;20020;-68
2020/12/24 11:09:23;;;;;;;12.30;6.25;;;;;;;;;;5058632;28;20023;-68
2020/12/24 11:11:49;;;;;;;10.88;6.55;;;;;;;;;;5075514;28;20024;-68
2020/12/24 11:14:14;;;;;;;10.70;5.57;;;;;;;;;;5093188;28;20050;-68
2020/12/24 11:16:41;;;;;;;9.15;5.50;;;;;;;;;;5092847;28;20503;-67
2020/12/24 11:19:06;;;;;;;13.95;6.43;;;;;;;;;;5093099;28;20488;-68
2020/12/24 11:21:32;;;;;;;9.75;6.03;;;;;;;;;;5058325;28;20038;-68
2020/12/24 11:24:04;;;;;;;13.45;6.00;;;;;;;;;;5092824;28;20016;-68
2020/12/24 11:26:30;;;;;;;14.35;6.70;;;;;;;;;;5093116;28;20031;-68
2020/12/24 11:28:55;;;;;;;11.77;5.40;;;;;;;;;;5058166;28;20024;-68
2020/12/24 11:31:21;;;;;;;8.52;5.43;;;;;;;;;;5073893;28;20170;-68
2020/12/24 11:33:46;;;;;;;11.23;6.93;;;;;;;;;;5074698;28;20481;-68
2020/12/24 11:36:12;;;;;;;11.35;5.63;;;;;;;;;;5074613;28;20031;-68
2020/12/24 11:38:37;;;;;;;10.32;6.70;;;;;;;;;;5074892;28;20016;-68
2020/12/24 11:41:03;;;;;;;7.82;5.57;;;;;;;;;;5074877;28;20077;-69
2020/12/24 11:43:28;;;;;;;11.05;6.15;;;;;;;;;;5092898;28;20069;-68
2020/12/24 11:45:53;;;;;;;12.07;6.25;;;;;;;;;;5092036;28;20433;-68
2020/12/24 11:48:19;;;;;;;15.38;6.57;;;;;;;;;;5092846;28;20099;-67
2020/12/24 11:50:44;;;;;;;12.18;6.57;;;;;;;;;;5092993;28;20422;-68
2020/12/24 11:53:09;;;;;;;11.57;6.30;;;;;;;;;;5092863;28;20032;-68
2020/12/24 11:55:35;;;;;;;10.27;6.05;;;;;;;;;;5074678;28;20370;-68
2020/12/24 11:58:01;;;;;;;9.27;5.78;;;;;;;;;;5074388;28;20149;-68
2020/12/24 12:00:26;;;;;;;11.05;6.82;;;;;;;;;;5075075;28;20073;-68
2020/12/24 12:02:52;;;;;;;7.32;5.10;;;;;;;;;;5093000;28;20107;-68
2020/12/24 12:05:17;;;;;;;11.98;4.88;;;;;;;;;;5092813;28;20413;-68
2020/12/24 12:07:44;;;;;;;9.68;5.18;;;;;;;;;;5074494;28;20087;-69
2020/12/24 12:10:09;;;;;;;8.45;4.05;;;;;;;;;;5092353;28;20491;-69
2020/12/24 12:12:34;;;;;;;8.23;3.85;;;;;;;;;;5092638;28;20036;-68
2020/12/24 12:15:00;;;;;;;6.35;4.00;;;;;;;;;;5092356;28;20387;-68
2020/12/24 12:17:25;;;;;;;6.93;4.30;;;;;;;;;;5092163;28;20035;-68
2020/12/24 12:19:51;;;;;;;6.07;3.50;;;;;;;;;;5093269;28;20031;-69
2020/12/24 12:22:16;;;;;;;9.60;4.25;;;;;;;;;;5074267;28;20024;-69
2020/12/24 12:24:41;;;;;;;5.65;3.70;;;;;;;;;;5074610;28;20062;-69
2020/12/24 12:27:07;;;;;;;6.90;4.47;;;;;;;;;;5092647;28;20008;-69
2020/12/24 12:29:33;;;;;;;8.93;4.50;;;;;;;;;;5092345;28;20024;-68
2020/12/24 12:31:58;;;;;;;10.70;5.38;;;;;;;;;;5070573;28;20056;-68
2020/12/24 12:34:26;;;;;;;6.15;3.55;;;;;;;;;;5071989;28;20074;-68
2020/12/24 12:36:51;;;;;;;8.90;4.25;;;;;;;;;;5071178;28;20032;-69
2020/12/24 12:39:18;;;;;;;7.35;3.72;;;;;;;;;;5070950;28;20024;-69
2020/12/24 12:41:44;;;;;;;10.68;4.90;;;;;;;;;;5073129;28;20017;-68
2020/12/24 12:44:09;;;;;;;6.68;4.18;;;;;;;;;;5075601;28;20023;-69
2020/12/24 12:46:35;;;;;;;5.55;3.50;;;;;;;;;;5075408;28;20025;-68
2020/12/24 12:49:00;;;;;;;10.82;4.22;;;;;;;;;;5074521;28;20016;-69
2020/12/24 12:51:26;;;;;;;6.55;3.90;;;;;;;;;;5075744;28;20032;-69
2020/12/24 12:53:51;;;;;;;8.15;4.57;;;;;;;;;;5075768;28;20032;-69
2020/12/24 12:56:22;;;;;;;8.00;4.75;;;;;;;;;;5074358;28;20473;-69
2020/12/24 12:58:47;;;;;;;7.13;4.75;;;;;;;;;;5075808;28;20373;-69
2020/12/24 13:01:17;;;;;;;8.30;4.97;;;;;;;;;;5057671;28;20013;-69
2020/12/24 13:03:43;;;;;;;11.23;5.15;;;;;;;;;;5075595;28;20008;-69
2020/12/24 13:06:16;;;;;;;9.55;4.82;;;;;;;;;;5075459;28;20461;-69
2020/12/24 13:08:44;;;;;;;8.40;4.35;;;;;;;;;;5074504;28;20036;-68
2020/12/24 13:11:09;;;;;;;8.90;4.95;;;;;;;;;;5075598;28;20059;-69
2020/12/24 13:13:35;;;;;;;10.80;5.60;;;;;;;;;;5075328;28;20063;-69
2020/12/24 13:16:00;;;;;;;10.18;5.97;;;;;;;;;;5074904;28;20032;-69
2020/12/24 13:18:25;;;;;;;9.05;5.43;;;;;;;;;;5075568;28;20131;-69
2020/12/24 13:20:51;;;;;;;11.23;6.50;;;;;;;;;;5073935;28;20473;-69
2020/12/24 13:23:16;;;;;;;29.17;11.38;;;;;;;;;;5073810;28;20028;-69
2020/12/24 13:25:42;;;;;;;12.82;6.55;;;;;;;;;;5073978;28;20091;-69
2020/12/24 13:28:07;;;;;;;12.93;6.22;;;;;;;;;;5073601;28;20024;-69
2020/12/24 13:30:32;;;;;;;8.85;5.15;;;;;;;;;;5075283;28;20044;-69
2020/12/24 13:32:58;;;;;;;14.18;4.97;;;;;;;;;;5081281;28;20052;-70
2020/12/24 13:35:23;;;;;;;8.93;4.60;;;;;;;;;;5051469;28;20016;-68
2020/12/24 13:37:48;;;;;;;8.85;5.20;;;;;;;;;;5084853;28;20055;-68
2020/12/24 13:40:14;;;;;;;9.55;5.40;;;;;;;;;;5039904;28;20017;-68
2020/12/24 13:42:39;;;;;;;9.00;4.97;;;;;;;;;;5040288;28;20062;-68
2020/12/24 13:45:06;;;;;;;8.77;4.50;;;;;;;;;;5057068;28;20036;-67
2020/12/24 13:47:32;;;;;;;4.45;3.40;;;;;;;;;;5039955;28;20024;-67
2020/12/24 13:49:57;;;;;;;7.05;3.60;;;;;;;;;;5074466;28;20059;-67
2020/12/24 13:52:23;;;;;;;4.68;3.25;;;;;;;;;;5079680;28;20068;-67
2020/12/24 13:54:48;;;;;;;5.22;3.35;;;;;;;;;;5083116;28;20349;-67
2020/12/24 13:57:14;;;;;;;6.22;3.58;;;;;;;;;;5083300;28;20429;-67
2020/12/24 13:59:39;;;;;;;4.65;3.08;;;;;;;;;;5083160;28;20072;-67
2020/12/24 14:02:05;;;;;;;4.97;2.97;;;;;;;;;;5066356;28;20016;-68
2020/12/24 14:04:30;;;;;;;10.55;3.97;;;;;;;;;;5082745;28;20009;-68
2020/12/24 14:06:57;;;;;;;7.78;3.17;;;;;;;;;;5083406;28;20094;-68
2020/12/24 14:09:23;;;;;;;5.35;3.67;;;;;;;;;;5058837;28;20032;-68
2020/12/24 14:11:48;;;;;;;7.72;3.53;;;;;;;;;;5056076;28;20385;-68
2020/12/24 14:14:14;;;;;;;6.70;4.25;;;;;;;;;;5056268;28;20105;-67
2020/12/24 14:16:39;;;;;;;6.13;3.85;;;;;;;;;;5056029;28;20048;-68
2020/12/24 14:19:05;;;;;;;5.70;4.25;;;;;;;;;;5074513;28;20074;-68
2020/12/24 14:21:32;;;;;;;6.15;3.85;;;;;;;;;;5039493;28;20401;-67